createdAt,value
2018-05-02T00:01:34.480Z,80.70
2018-05-02T00:04:02.389Z,80.10
2018-05-02T00:06:31.253Z,79.40
2018-05-02T00:09:00.444Z,79.30
2018-05-02T00:11:30.309Z,78.90
2018-05-02T00:13:58.187Z,78.30
2018-05-02T00:16:26.423Z,78.20
2018-05-02T00:18:56.000Z,78.30
2018-05-02T00:21:24.178Z,78.00
2018-05-02T00:23:53.025Z,79.30
2018-05-02T00:26:21.212Z,80.80
2018-05-02T00:28:48.970Z,81.60
2018-05-02T00:31:17.556Z,82.10
2018-05-02T00:33:46.119Z,82.30
2018-05-02T00:38:46.048Z,83.10
2018-05-02T00:41:14.918Z,83.30
2018-05-02T00:43:42.799Z,83.30
2018-05-02T00:46:10.655Z,83.40
2018-05-02T00:48:50.129Z,83.30
2018-05-02T00:51:19.525Z,83.40
2018-05-02T00:53:48.553Z,83.50
2018-05-02T00:56:16.368Z,83.70
2018-05-02T00:58:44.574Z,84.10
2018-05-02T01:01:13.379Z,84.30
2018-05-02T01:03:41.547Z,84.20
2018-05-02T01:06:10.914Z,84.90
2018-05-02T01:08:39.896Z,84.80
2018-05-02T01:11:07.744Z,84.80
2018-05-02T01:13:36.232Z,84.20
2018-05-02T01:16:04.240Z,84.20
2018-05-02T01:18:32.157Z,83.10
2018-05-02T01:21:00.285Z,82.80
2018-05-02T01:26:01.178Z,81.50
2018-05-02T01:28:30.230Z,81.10
2018-05-02T01:30:58.403Z,80.90
2018-05-02T01:33:26.229Z,80.60
2018-05-02T01:35:55.392Z,80.40
2018-05-02T01:38:23.198Z,80.30
2018-05-02T01:40:51.299Z,80.00
2018-05-02T01:43:20.848Z,79.90
2018-05-02T01:45:49.530Z,79.80
2018-05-02T01:48:17.638Z,79.70
2018-05-02T01:50:46.439Z,79.80
2018-05-02T01:53:15.357Z,79.50
2018-05-02T01:55:43.897Z,79.40
2018-05-02T01:58:13.232Z,79.50
2018-05-02T02:00:41.050Z,79.30
2018-05-02T02:03:09.848Z,79.40
2018-05-02T02:05:37.759Z,79.60
2018-05-02T02:08:06.757Z,80.00
2018-05-02T02:10:34.940Z,80.00
2018-05-02T02:13:03.992Z,80.30
2018-05-02T02:15:33.121Z,80.40
2018-05-02T02:18:01.755Z,80.90
2018-05-02T02:20:30.128Z,80.90
2018-05-02T02:23:00.086Z,81.50
2018-05-02T02:25:28.853Z,81.80
2018-05-02T02:27:56.941Z,81.80
2018-05-02T02:30:25.644Z,82.80
2018-05-02T02:32:54.069Z,82.70
2018-05-02T02:35:22.618Z,83.40
2018-05-02T02:37:51.407Z,83.60
2018-05-02T02:40:20.048Z,84.20
2018-05-02T02:42:48.127Z,84.50
2018-05-02T02:45:17.223Z,84.70
2018-05-02T02:47:45.080Z,84.90
2018-05-02T02:50:14.522Z,85.20
2018-05-02T02:52:43.354Z,85.40
2018-05-02T02:55:12.235Z,85.60
2018-05-02T02:57:41.009Z,85.60
2018-05-02T03:00:11.814Z,86.00
2018-05-02T03:02:39.899Z,85.90
2018-05-02T03:05:09.008Z,86.20
2018-05-02T03:07:38.090Z,86.30
2018-05-02T03:12:40.311Z,86.60
2018-05-02T03:15:10.630Z,86.70
2018-05-02T03:17:38.752Z,86.70
2018-05-02T03:20:08.163Z,86.90
2018-05-02T03:22:36.931Z,86.90
2018-05-02T03:25:07.399Z,87.00
2018-05-02T03:27:38.108Z,87.20
2018-05-02T03:32:40.889Z,87.30
2018-05-02T03:35:08.886Z,88.00
2018-05-02T03:37:37.755Z,87.50
2018-05-02T03:40:06.703Z,87.50
2018-05-02T03:42:34.518Z,87.60
2018-05-02T03:45:03.471Z,87.80
2018-05-02T03:47:31.574Z,87.70
2018-05-02T03:50:00.115Z,88.10
2018-05-02T03:52:28.188Z,88.00
2018-05-02T03:54:56.389Z,88.30
2018-05-02T03:57:25.307Z,88.10
2018-05-02T04:00:06.585Z,88.10
2018-05-02T04:02:46.312Z,87.90
2018-05-02T04:05:26.120Z,87.80
2018-05-02T04:07:54.340Z,87.90
2018-05-02T04:10:23.802Z,88.00
2018-05-02T04:12:52.631Z,87.90
2018-05-02T04:15:22.385Z,87.50
2018-05-02T04:17:51.708Z,87.50
2018-05-02T04:20:19.557Z,87.40
2018-05-02T04:22:48.159Z,87.10
2018-05-02T04:25:19.553Z,86.70
2018-05-02T04:27:47.430Z,86.40
2018-05-02T04:30:16.165Z,85.80
2018-05-02T04:32:44.889Z,85.10
2018-05-02T04:35:15.124Z,84.90
2018-05-02T04:37:43.868Z,83.00
2018-05-02T04:42:45.961Z,78.70
2018-05-02T04:45:15.171Z,78.70
2018-05-02T04:47:44.669Z,77.20
2018-05-02T04:50:12.574Z,77.10
2018-05-02T04:52:40.691Z,76.30
2018-05-02T04:55:09.670Z,75.50
2018-05-02T04:57:37.905Z,74.60
2018-05-02T05:00:06.684Z,73.90
2018-05-02T05:02:35.221Z,73.40
2018-05-02T05:05:04.674Z,71.90
2018-05-02T05:07:32.489Z,71.70
2018-05-02T05:10:01.164Z,71.20
2018-05-02T05:12:29.352Z,70.20
2018-05-02T05:14:58.306Z,70.30
2018-05-02T05:17:26.214Z,69.70
2018-05-02T05:19:54.876Z,68.50
2018-05-02T05:22:23.929Z,66.40
2018-05-02T05:24:51.924Z,65.70
2018-05-02T05:27:20.208Z,64.80
2018-05-02T05:29:50.130Z,65.00
2018-05-02T05:32:18.115Z,65.20
2018-05-02T05:34:47.189Z,63.90
2018-05-02T05:39:51.177Z,63.60
2018-05-02T05:42:19.835Z,63.60
2018-05-02T05:47:25.086Z,63.90
2018-05-02T05:49:55.450Z,63.80
2018-05-02T05:52:26.937Z,63.80
2018-05-02T05:58:23.372Z,64.20
2018-05-02T06:03:30.858Z,63.30
2018-05-02T06:05:59.532Z,62.90
2018-05-02T06:19:01.557Z,63.20
2018-05-02T06:24:03.655Z,62.90
2018-05-02T06:29:06.488Z,62.50
2018-05-02T06:31:38.174Z,61.10
2018-05-02T06:34:07.003Z,61.10
2018-05-02T06:42:17.361Z,59.60
2018-05-02T06:44:49.663Z,59.50
2018-05-02T06:53:04.111Z,58.60
2018-05-02T07:03:13.496Z,57.70
2018-05-02T07:05:47.768Z,57.70
2018-05-02T07:10:49.960Z,57.20
2018-05-02T07:21:18.253Z,55.50
2018-05-02T07:23:54.388Z,55.50
2018-05-02T07:32:02.585Z,54.40
2018-05-02T07:34:45.838Z,53.70
2018-05-02T07:37:21.648Z,53.70
2018-05-02T07:39:55.676Z,53.90
2018-05-02T07:42:31.570Z,53.90
2018-05-02T07:45:05.854Z,52.90
2018-05-02T07:47:52.725Z,52.90
2018-05-02T07:50:51.936Z,52.00
2018-05-02T07:53:20.752Z,51.60
2018-05-02T07:55:49.152Z,51.60
2018-05-02T07:58:21.231Z,51.40
2018-05-02T08:00:49.327Z,51.30
2018-05-02T08:03:18.155Z,50.40
2018-05-02T08:05:52.122Z,51.00
2018-05-02T08:08:24.508Z,49.80
2018-05-02T08:10:53.025Z,49.20
2018-05-02T08:20:12.917Z,48.80
2018-05-02T08:22:44.353Z,48.90
2018-05-02T08:28:12.009Z,47.50
2018-05-02T09:01:25.339Z,44.30
2018-05-02T09:04:06.516Z,44.20
2018-05-02T09:14:25.237Z,44.10
2018-05-02T09:16:53.378Z,44.20
2018-05-02T09:19:21.416Z,43.80
2018-05-02T09:21:51.627Z,42.70
2018-05-02T09:24:20.404Z,41.50
2018-05-02T09:26:49.223Z,41.20
2018-05-02T09:29:17.440Z,41.30
2018-05-02T09:31:46.581Z,41.70
2018-05-02T09:34:14.770Z,41.90
2018-05-02T09:36:42.794Z,41.70
2018-05-02T09:39:10.836Z,41.80
2018-05-02T09:41:39.073Z,42.00
2018-05-02T09:44:07.061Z,41.60
2018-05-02T09:46:35.060Z,41.40
2018-05-02T09:49:03.074Z,41.30
2018-05-02T09:51:31.780Z,40.50
2018-05-02T09:53:59.824Z,40.50
2018-05-02T09:56:28.802Z,40.60
2018-05-02T09:58:56.885Z,40.50
2018-05-02T10:01:24.924Z,40.80
2018-05-02T10:03:53.136Z,40.80
2018-05-02T10:06:22.679Z,40.80
2018-05-02T10:08:50.671Z,40.80
2018-05-02T10:11:19.220Z,41.30
2018-05-02T10:13:47.198Z,40.90
2018-05-02T10:18:49.352Z,41.70
2018-05-02T10:21:17.311Z,42.80
2018-05-02T10:23:46.320Z,42.30
2018-05-02T10:26:14.407Z,42.30
2018-05-02T10:28:44.016Z,42.20
2018-05-02T10:31:11.992Z,42.20
2018-05-02T10:33:39.964Z,42.20
2018-05-02T10:36:07.943Z,42.20
2018-05-02T10:38:35.976Z,42.60
2018-05-02T10:41:04.475Z,41.90
2018-05-02T10:43:32.467Z,41.90
2018-05-02T10:46:00.382Z,41.60
2018-05-02T10:48:29.112Z,41.80
2018-05-02T10:50:57.118Z,41.80
2018-05-02T10:53:25.139Z,41.90
2018-05-02T10:55:53.216Z,42.20
2018-05-02T11:00:55.967Z,41.90
2018-05-02T11:03:24.066Z,41.50
2018-05-02T11:05:52.604Z,41.40
2018-05-02T11:08:21.369Z,41.40
2018-05-02T11:10:49.356Z,41.10
2018-05-02T11:13:21.403Z,41.00
2018-05-02T11:15:51.719Z,41.00
2018-05-02T11:18:23.865Z,39.20
2018-05-02T11:20:58.076Z,39.40
2018-05-02T11:23:27.071Z,38.40
2018-05-02T11:25:58.424Z,38.50
2018-05-02T11:28:27.432Z,39.30
2018-05-02T11:30:57.205Z,39.30
2018-05-02T11:33:29.049Z,39.00
2018-05-02T11:35:58.940Z,38.60
2018-05-02T11:38:34.018Z,38.50
2018-05-02T11:41:19.030Z,38.50
2018-05-02T11:43:47.170Z,38.30
2018-05-02T11:46:15.352Z,38.40
2018-05-02T11:51:59.160Z,38.50
2018-05-02T11:54:37.904Z,38.00
2018-05-02T11:57:09.244Z,38.30
2018-05-02T11:59:38.148Z,37.20
2018-05-02T12:02:06.884Z,37.90
2018-05-02T12:17:37.427Z,37.00
2018-05-02T12:20:05.682Z,37.70
2018-05-02T12:22:33.189Z,37.70
2018-05-02T12:25:00.743Z,41.80
2018-05-02T12:27:28.255Z,40.70
2018-05-02T12:29:55.765Z,40.60
2018-05-02T12:32:23.260Z,39.60
2018-05-02T12:34:50.734Z,36.60
2018-05-02T12:37:19.011Z,35.80
2018-05-02T12:39:46.636Z,35.80
2018-05-02T12:42:14.129Z,37.30
2018-05-02T12:44:41.625Z,36.60
2018-05-02T12:47:09.937Z,36.60
2018-05-02T12:49:37.603Z,36.90
2018-05-02T12:52:05.129Z,36.40
2018-05-02T12:54:32.745Z,36.40
2018-05-02T12:57:00.356Z,35.90
2018-05-02T12:59:30.391Z,37.90
2018-05-02T13:01:58.008Z,35.90
2018-05-02T13:04:25.603Z,39.60
2018-05-02T13:06:53.470Z,36.20
2018-05-02T13:09:20.962Z,35.50
2018-05-02T13:11:48.466Z,35.60
2018-05-02T13:14:15.957Z,37.20
2018-05-02T13:16:43.452Z,37.40
2018-05-02T13:19:11.729Z,37.20
2018-05-02T13:21:39.981Z,36.50
2018-05-02T13:24:07.495Z,36.40
2018-05-02T13:26:34.984Z,36.00
2018-05-02T13:29:02.476Z,36.50
2018-05-02T13:31:30.734Z,37.60
2018-05-02T13:33:59.158Z,37.70
2018-05-02T13:36:26.667Z,37.90
2018-05-02T13:38:55.317Z,36.80
2018-05-02T13:41:22.889Z,35.60
2018-05-02T13:53:02.605Z,33.80
2018-05-02T13:55:32.359Z,33.80
2018-05-02T13:58:01.440Z,34.00
2018-05-02T14:00:30.957Z,34.20
2018-05-02T14:03:04.359Z,33.70
2018-05-02T14:05:34.507Z,34.00
2018-05-02T14:08:05.571Z,34.00
2018-05-02T14:10:42.019Z,34.40
2018-05-02T14:13:19.711Z,33.90
2018-05-02T14:15:59.575Z,33.70
2018-05-02T14:23:58.562Z,32.80
2018-05-02T14:26:37.328Z,32.70
2018-05-02T14:29:17.717Z,33.60
2018-05-02T14:32:01.496Z,33.50
2018-05-02T17:19:01.341Z,30.60
2018-05-02T17:21:35.668Z,30.90
2018-05-02T17:24:11.556Z,30.00
2018-05-02T17:26:55.760Z,29.60
2018-05-02T17:29:37.986Z,29.60
2018-05-02T17:32:11.376Z,28.80
2018-05-02T17:34:52.337Z,28.20
2018-05-02T17:37:33.661Z,28.10
2018-05-02T17:40:08.790Z,27.90
2018-05-02T17:48:10.376Z,28.50
2018-05-02T17:50:48.845Z,28.60
2018-05-02T17:53:33.242Z,28.70
2018-05-02T17:56:13.264Z,28.70
2018-05-02T17:58:48.033Z,28.40
2018-05-02T18:01:19.399Z,29.00
2018-05-02T18:03:48.977Z,29.00
2018-05-02T18:06:21.004Z,30.00
2018-05-02T18:08:50.811Z,31.10
2018-05-02T18:11:22.278Z,32.40
2018-05-02T18:14:05.121Z,33.50
2018-05-02T18:16:33.754Z,34.70
2018-05-02T18:19:01.787Z,35.50
2018-05-02T18:21:31.187Z,36.80
2018-05-02T18:23:59.943Z,37.50
2018-05-02T18:26:28.644Z,37.50
2018-05-02T18:28:57.532Z,38.00
2018-05-02T18:31:25.546Z,38.70
2018-05-02T18:33:54.319Z,39.10
2018-05-02T18:36:24.037Z,40.10
2018-05-02T18:38:51.960Z,40.10
2018-05-02T18:41:19.968Z,40.60
2018-05-02T18:43:48.741Z,41.30
2018-05-02T18:46:17.428Z,41.30
2018-05-02T18:48:46.166Z,42.20
2018-05-02T18:51:14.118Z,42.20
2018-05-02T18:53:42.225Z,42.30
2018-05-02T18:56:10.282Z,42.50
2018-05-02T18:58:40.984Z,43.30
2018-05-02T19:01:09.914Z,43.30
2018-05-02T19:03:38.653Z,43.80
2018-05-02T19:06:07.674Z,44.20
2018-05-02T19:08:35.751Z,44.50
2018-05-02T19:11:04.856Z,45.00
2018-05-02T19:16:43.710Z,45.30
2018-05-02T19:19:20.033Z,45.50
2018-05-02T19:21:49.921Z,45.80
2018-05-02T19:24:20.456Z,46.20
2018-05-02T19:26:48.560Z,46.20
2018-05-02T19:29:18.227Z,46.50
2018-05-02T19:31:54.118Z,46.90
2018-05-02T19:34:24.924Z,47.00
2018-05-02T19:36:54.479Z,47.40
2018-05-02T19:39:23.357Z,47.40
2018-05-02T19:42:06.172Z,47.40
2018-05-02T19:44:36.665Z,47.70
2018-05-02T19:47:06.504Z,48.00
2018-05-02T19:49:36.890Z,47.90
2018-05-02T19:52:10.650Z,48.10
2018-05-02T19:54:39.556Z,48.10
2018-05-02T19:57:07.665Z,48.30
2018-05-02T19:59:37.161Z,48.40
2018-05-02T20:02:12.569Z,48.70
2018-05-02T20:04:42.341Z,48.80
2018-05-02T20:07:16.853Z,48.90
2018-05-02T20:09:51.408Z,49.50
2018-05-02T20:12:25.647Z,49.50
2018-05-02T20:14:53.701Z,49.80
2018-05-02T20:17:23.896Z,50.10
2018-05-02T20:19:52.671Z,50.60
2018-05-02T20:22:21.590Z,50.70
2018-05-02T20:24:50.276Z,50.60
2018-05-02T20:27:19.266Z,50.70
2018-05-02T20:29:47.879Z,50.90
2018-05-02T20:32:16.474Z,50.90
2018-05-02T20:34:45.123Z,51.10
2018-05-02T20:37:14.455Z,51.20
2018-05-02T20:39:44.270Z,51.30
2018-05-02T20:42:12.931Z,51.50
2018-05-02T20:44:40.905Z,51.60
2018-05-02T20:47:10.191Z,51.80
2018-05-02T20:49:40.295Z,52.00
2018-05-02T20:52:08.432Z,52.20
2018-05-02T20:54:38.527Z,52.20
2018-05-02T20:57:06.569Z,52.70
2018-05-02T20:59:34.558Z,52.60
2018-05-02T21:04:39.647Z,53.50
2018-05-02T21:07:08.448Z,53.50
2018-05-02T21:09:39.077Z,53.70
2018-05-02T21:12:07.814Z,53.90
2018-05-02T21:14:36.899Z,53.90
2018-05-02T21:17:05.907Z,54.20
2018-05-02T21:19:35.921Z,54.20
2018-05-02T21:22:04.962Z,54.40
2018-05-02T21:24:34.374Z,54.80
2018-05-02T21:27:03.835Z,54.90
2018-05-02T21:29:32.194Z,54.90
2018-05-02T21:32:01.347Z,55.00
2018-05-02T21:34:30.622Z,55.10
2018-05-02T21:37:00.852Z,55.10
2018-05-02T21:39:29.644Z,55.10
2018-05-02T21:41:58.314Z,55.30
2018-05-02T21:44:27.225Z,55.30
2018-05-02T21:46:55.974Z,55.50
2018-05-02T21:49:23.964Z,55.50
2018-05-02T21:51:53.904Z,55.60
2018-05-02T21:54:22.674Z,55.90
2018-05-02T21:56:52.365Z,55.90
2018-05-02T21:59:21.217Z,56.10
2018-05-02T22:01:50.025Z,56.20
2018-05-02T22:04:19.950Z,56.50
2018-05-02T22:06:49.640Z,56.60
2018-05-02T22:09:19.527Z,56.80
2018-05-02T22:11:48.297Z,57.30
2018-05-02T22:14:17.027Z,57.60
2018-05-02T22:16:45.668Z,57.50
2018-05-02T22:19:15.500Z,58.00
2018-05-02T22:21:44.241Z,58.20
2018-05-02T22:24:12.273Z,58.50
2018-05-02T22:26:41.066Z,58.90
2018-05-02T22:29:09.100Z,58.90
2018-05-02T22:31:37.929Z,59.10
2018-05-02T22:34:05.952Z,59.40
2018-05-02T22:36:34.846Z,59.80
2018-05-02T22:39:03.807Z,59.80
2018-05-02T22:41:32.478Z,60.10
2018-05-02T22:44:01.604Z,60.30
2018-05-02T22:46:30.126Z,60.60
2018-05-02T22:48:59.792Z,60.60
2018-05-02T22:51:27.766Z,61.00
2018-05-02T22:53:55.890Z,61.10
2018-05-02T22:56:25.845Z,61.30
2018-05-02T22:58:53.890Z,61.60
2018-05-02T23:01:22.885Z,61.80
2018-05-02T23:03:50.846Z,61.70
2018-05-02T23:06:22.410Z,62.10
2018-05-02T23:08:52.602Z,62.20
2018-05-02T23:11:21.283Z,62.20
2018-05-02T23:13:50.065Z,62.60
2018-05-02T23:16:20.586Z,63.10
2018-05-02T23:18:50.420Z,63.00
2018-05-02T23:21:19.215Z,63.00
2018-05-02T23:23:48.167Z,63.40
2018-05-02T23:26:16.187Z,63.50
2018-05-02T23:28:45.546Z,63.80
2018-05-02T23:31:13.548Z,63.70
2018-05-02T23:33:44.887Z,64.00
2018-05-02T23:36:13.619Z,64.60
2018-05-02T23:38:42.645Z,64.50
2018-05-02T23:41:11.411Z,66.50
2018-05-02T23:43:40.236Z,66.50
2018-05-02T23:46:08.836Z,67.50
2018-05-02T23:48:36.870Z,67.60
2018-05-02T23:51:04.860Z,67.90
2018-05-02T23:53:34.339Z,68.90
2018-05-02T23:56:03.062Z,69.20
2018-05-02T23:58:31.013Z,69.20
